sensor_id;sensor_type;location;lat;lon;timestamp;P1;durP1;ratioP1;P2;durP2;ratioP2
75704;SDS011;70013;44.726;37.760;2023-08-24T00:00:22;4.55;;;1.80;;
75704;SDS011;70013;44.726;37.760;2023-08-24T00:01:25;4.50;;;2.00;;
75704;SDS011;70013;44.726;37.760;2023-08-24T00:03:27;5.40;;;1.98;;
75704;SDS011;70013;44.726;37.760;2023-08-24T00:04:29;5.28;;;2.25;;
75704;SDS011;70013;44.726;37.760;2023-08-24T00:05:33;6.38;;;2.25;;
75704;SDS011;70013;44.726;37.760;2023-08-24T00:06:37;8.85;;;2.15;;
75704;SDS011;70013;44.726;37.760;2023-08-24T00:07:39;6.43;;;1.70;;
75704;SDS011;70013;44.726;37.760;2023-08-24T00:09:41;6.85;;;2.10;;
75704;SDS011;70013;44.726;37.760;2023-08-24T00:10:43;4.32;;;2.13;;
75704;SDS011;70013;44.726;37.760;2023-08-24T00:11:48;6.15;;;2.05;;
75704;SDS011;70013;44.726;37.760;2023-08-24T00:12:50;3.80;;;2.00;;
75704;SDS011;70013;44.726;37.760;2023-08-24T00:13:51;5.00;;;2.10;;
75704;SDS011;70013;44.726;37.760;2023-08-24T00:14:53;9.65;;;2.20;;
75704;SDS011;70013;44.726;37.760;2023-08-24T00:15:55;9.35;;;2.40;;
75704;SDS011;70013;44.726;37.760;2023-08-24T00:17:57;6.75;;;1.90;;
75704;SDS011;70013;44.726;37.760;2023-08-24T00:18:59;9.43;;;2.28;;
75704;SDS011;70013;44.726;37.760;2023-08-24T00:20:00;6.60;;;2.40;;
75704;SDS011;70013;44.726;37.760;2023-08-24T00:21:05;8.40;;;2.60;;
75704;SDS011;70013;44.726;37.760;2023-08-24T00:22:06;5.63;;;2.40;;
75704;SDS011;70013;44.726;37.760;2023-08-24T00:23:07;7.35;;;2.50;;
75704;SDS011;70013;44.726;37.760;2023-08-24T00:24:09;4.13;;;2.03;;
75704;SDS011;70013;44.726;37.760;2023-08-24T00:25:10;6.97;;;2.60;;
75704;SDS011;70013;44.726;37.760;2023-08-24T00:26:11;7.25;;;2.58;;
75704;SDS011;70013;44.726;37.760;2023-08-24T00:27:13;4.68;;;2.17;;
75704;SDS011;70013;44.726;37.760;2023-08-24T00:28:14;11.43;;;2.35;;
75704;SDS011;70013;44.726;37.760;2023-08-24T00:29:15;7.15;;;2.50;;
75704;SDS011;70013;44.726;37.760;2023-08-24T00:30:17;9.93;;;2.42;;
75704;SDS011;70013;44.726;37.760;2023-08-24T00:31:19;11.25;;;2.95;;
75704;SDS011;70013;44.726;37.760;2023-08-24T00:32:23;7.35;;;2.72;;
75704;SDS011;70013;44.726;37.760;2023-08-24T00:33:24;7.93;;;2.47;;
75704;SDS011;70013;44.726;37.760;2023-08-24T00:34:29;11.00;;;2.70;;
75704;SDS011;70013;44.726;37.760;2023-08-24T00:35:30;7.47;;;2.65;;
75704;SDS011;70013;44.726;37.760;2023-08-24T00:37:34;5.50;;;2.58;;
75704;SDS011;70013;44.726;37.760;2023-08-24T00:38:37;6.05;;;2.80;;
75704;SDS011;70013;44.726;37.760;2023-08-24T00:39:38;6.10;;;2.58;;
75704;SDS011;70013;44.726;37.760;2023-08-24T00:40:41;7.88;;;2.65;;
75704;SDS011;70013;44.726;37.760;2023-08-24T00:41:44;7.97;;;2.38;;
75704;SDS011;70013;44.726;37.760;2023-08-24T00:42:46;6.07;;;2.30;;
75704;SDS011;70013;44.726;37.760;2023-08-24T00:43:47;6.05;;;2.50;;
75704;SDS011;70013;44.726;37.760;2023-08-24T00:44:50;6.28;;;2.35;;
75704;SDS011;70013;44.726;37.760;2023-08-24T00:45:52;5.88;;;2.30;;
75704;SDS011;70013;44.726;37.760;2023-08-24T00:46:57;8.95;;;2.40;;
75704;SDS011;70013;44.726;37.760;2023-08-24T00:48:01;6.72;;;2.47;;
75704;SDS011;70013;44.726;37.760;2023-08-24T00:49:03;8.95;;;2.30;;
75704;SDS011;70013;44.726;37.760;2023-08-24T00:50:05;10.88;;;2.70;;
75704;SDS011;70013;44.726;37.760;2023-08-24T00:51:07;6.28;;;2.50;;
75704;SDS011;70013;44.726;37.760;2023-08-24T00:53:10;9.00;;;2.97;;
75704;SDS011;70013;44.726;37.760;2023-08-24T00:54:13;13.50;;;2.78;;
75704;SDS011;70013;44.726;37.760;2023-08-24T00:55:14;7.05;;;2.70;;
75704;SDS011;70013;44.726;37.760;2023-08-24T00:56:17;8.82;;;2.40;;
75704;SDS011;70013;44.726;37.760;2023-08-24T00:57:21;9.43;;;2.58;;
75704;SDS011;70013;44.726;37.760;2023-08-24T00:58:24;11.75;;;3.10;;
75704;SDS011;70013;44.726;37.760;2023-08-24T00:59:27;11.93;;;2.63;;
75704;SDS011;70013;44.726;37.760;2023-08-24T01:01:30;8.07;;;2.70;;
75704;SDS011;70013;44.726;37.760;2023-08-24T01:02:33;9.70;;;2.58;;
75704;SDS011;70013;44.726;37.760;2023-08-24T01:03:35;8.50;;;2.50;;
75704;SDS011;70013;44.726;37.760;2023-08-24T01:05:37;10.63;;;3.10;;
75704;SDS011;70013;44.726;37.760;2023-08-24T01:06:39;10.82;;;2.80;;
75704;SDS011;70013;44.726;37.760;2023-08-24T01:08:43;9.80;;;3.15;;
75704;SDS011;70013;44.726;37.760;2023-08-24T01:10:57;12.38;;;2.53;;
75704;SDS011;70013;44.726;37.760;2023-08-24T01:12:13;11.60;;;2.78;;
75704;SDS011;70013;44.726;37.760;2023-08-24T01:15:12;15.38;;;2.72;;
75704;SDS011;70013;44.726;37.760;2023-08-24T01:16:23;14.13;;;3.30;;
75704;SDS011;70013;44.726;37.760;2023-08-24T01:17:28;11.43;;;4.00;;
75704;SDS011;70013;44.726;37.760;2023-08-24T01:18:31;13.73;;;5.30;;
75704;SDS011;70013;44.726;37.760;2023-08-24T01:19:43;19.52;;;5.10;;
75704;SDS011;70013;44.726;37.760;2023-08-24T01:20:45;19.67;;;4.95;;
75704;SDS011;70013;44.726;37.760;2023-08-24T01:21:49;13.48;;;3.55;;
75704;SDS011;70013;44.726;37.760;2023-08-24T01:24:31;10.50;;;3.75;;
75704;SDS011;70013;44.726;37.760;2023-08-24T01:25:42;13.25;;;3.30;;
75704;SDS011;70013;44.726;37.760;2023-08-24T01:26:53;19.10;;;4.25;;
75704;SDS011;70013;44.726;37.760;2023-08-24T01:27:56;13.98;;;3.72;;
75704;SDS011;70013;44.726;37.760;2023-08-24T01:28:59;12.80;;;3.90;;
75704;SDS011;70013;44.726;37.760;2023-08-24T01:30:05;9.50;;;3.72;;
75704;SDS011;70013;44.726;37.760;2023-08-24T01:31:07;14.57;;;3.90;;
75704;SDS011;70013;44.726;37.760;2023-08-24T01:32:09;15.55;;;3.95;;
75704;SDS011;70013;44.726;37.760;2023-08-24T01:33:12;12.70;;;3.60;;
75704;SDS011;70013;44.726;37.760;2023-08-24T01:34:14;14.63;;;3.60;;
75704;SDS011;70013;44.726;37.760;2023-08-24T01:35:15;12.38;;;3.70;;
75704;SDS011;70013;44.726;37.760;2023-08-24T01:36:17;10.30;;;3.78;;
75704;SDS011;70013;44.726;37.760;2023-08-24T01:37:18;10.82;;;3.63;;
75704;SDS011;70013;44.726;37.760;2023-08-24T01:38:20;15.05;;;3.65;;
75704;SDS011;70013;44.726;37.760;2023-08-24T01:42:03;12.60;;;3.22;;
75704;SDS011;70013;44.726;37.760;2023-08-24T01:43:07;9.90;;;3.00;;
75704;SDS011;70013;44.726;37.760;2023-08-24T01:44:12;10.60;;;3.45;;
75704;SDS011;70013;44.726;37.760;2023-08-24T01:45:15;16.25;;;3.10;;
75704;SDS011;70013;44.726;37.760;2023-08-24T01:46:20;13.27;;;2.88;;
75704;SDS011;70013;44.726;37.760;2023-08-24T01:47:24;12.55;;;3.25;;
75704;SDS011;70013;44.726;37.760;2023-08-24T01:48:27;9.35;;;3.10;;
75704;SDS011;70013;44.726;37.760;2023-08-24T01:49:29;11.52;;;3.50;;
75704;SDS011;70013;44.726;37.760;2023-08-24T01:50:32;12.05;;;2.80;;
75704;SDS011;70013;44.726;37.760;2023-08-24T01:51:34;16.75;;;3.30;;
75704;SDS011;70013;44.726;37.760;2023-08-24T01:52:36;10.98;;;3.38;;
75704;SDS011;70013;44.726;37.760;2023-08-24T01:53:39;7.45;;;2.80;;
75704;SDS011;70013;44.726;37.760;2023-08-24T01:54:40;9.57;;;2.92;;
75704;SDS011;70013;44.726;37.760;2023-08-24T01:55:47;10.30;;;3.47;;
75704;SDS011;70013;44.726;37.760;2023-08-24T01:56:48;6.47;;;3.20;;
75704;SDS011;70013;44.726;37.760;2023-08-24T01:57:49;8.98;;;2.85;;
75704;SDS011;70013;44.726;37.760;2023-08-24T01:59:52;9.77;;;3.10;;
75704;SDS011;70013;44.726;37.760;2023-08-24T02:00:53;15.98;;;3.10;;
75704;SDS011;70013;44.726;37.760;2023-08-24T02:01:55;16.55;;;3.58;;
75704;SDS011;70013;44.726;37.760;2023-08-24T02:02:57;10.30;;;2.85;;
75704;SDS011;70013;44.726;37.760;2023-08-24T02:03:59;7.43;;;3.03;;
75704;SDS011;70013;44.726;37.760;2023-08-24T02:05:01;10.25;;;3.40;;
75704;SDS011;70013;44.726;37.760;2023-08-24T02:06:04;10.07;;;3.00;;
75704;SDS011;70013;44.726;37.760;2023-08-24T02:07:07;11.80;;;3.30;;
75704;SDS011;70013;44.726;37.760;2023-08-24T02:08:09;9.25;;;3.10;;
75704;SDS011;70013;44.726;37.760;2023-08-24T02:09:11;12.18;;;3.40;;
75704;SDS011;70013;44.726;37.760;2023-08-24T02:10:13;15.68;;;3.17;;
75704;SDS011;70013;44.726;37.760;2023-08-24T02:11:14;15.93;;;3.90;;
75704;SDS011;70013;44.726;37.760;2023-08-24T02:13:17;15.35;;;3.60;;
75704;SDS011;70013;44.726;37.760;2023-08-24T02:14:19;12.30;;;3.67;;
75704;SDS011;70013;44.726;37.760;2023-08-24T02:17:26;9.52;;;3.30;;
75704;SDS011;70013;44.726;37.760;2023-08-24T02:18:28;8.18;;;3.42;;
75704;SDS011;70013;44.726;37.760;2023-08-24T02:19:29;12.00;;;3.65;;
75704;SDS011;70013;44.726;37.760;2023-08-24T02:20:35;9.40;;;3.30;;
75704;SDS011;70013;44.726;37.760;2023-08-24T02:21:39;12.05;;;3.70;;
75704;SDS011;70013;44.726;37.760;2023-08-24T02:22:43;12.48;;;3.28;;
75704;SDS011;70013;44.726;37.760;2023-08-24T02:23:45;15.20;;;3.75;;
75704;SDS011;70013;44.726;37.760;2023-08-24T02:25:48;16.88;;;3.60;;
75704;SDS011;70013;44.726;37.760;2023-08-24T02:26:49;11.55;;;3.30;;
75704;SDS011;70013;44.726;37.760;2023-08-24T02:27:51;11.73;;;3.28;;
75704;SDS011;70013;44.726;37.760;2023-08-24T02:28:54;13.38;;;3.60;;
75704;SDS011;70013;44.726;37.760;2023-08-24T02:29:59;13.50;;;3.33;;
75704;SDS011;70013;44.726;37.760;2023-08-24T02:31:01;10.95;;;3.17;;
75704;SDS011;70013;44.726;37.760;2023-08-24T02:32:03;9.55;;;3.50;;
75704;SDS011;70013;44.726;37.760;2023-08-24T02:33:06;11.43;;;3.45;;
75704;SDS011;70013;44.726;37.760;2023-08-24T02:34:08;14.93;;;3.60;;
75704;SDS011;70013;44.726;37.760;2023-08-24T02:35:11;12.73;;;3.90;;
75704;SDS011;70013;44.726;37.760;2023-08-24T02:36:13;12.63;;;3.28;;
75704;SDS011;70013;44.726;37.760;2023-08-24T02:37:14;16.67;;;3.38;;
75704;SDS011;70013;44.726;37.760;2023-08-24T02:38:16;9.73;;;3.03;;
75704;SDS011;70013;44.726;37.760;2023-08-24T02:39:18;16.83;;;3.70;;
75704;SDS011;70013;44.726;37.760;2023-08-24T02:41:21;8.27;;;3.17;;
75704;SDS011;70013;44.726;37.760;2023-08-24T02:42:22;9.77;;;3.28;;
75704;SDS011;70013;44.726;37.760;2023-08-24T02:43:24;12.10;;;3.53;;
75704;SDS011;70013;44.726;37.760;2023-08-24T02:44:26;13.38;;;3.85;;
75704;SDS011;70013;44.726;37.760;2023-08-24T02:45:28;14.50;;;3.20;;
75704;SDS011;70013;44.726;37.760;2023-08-24T02:47:31;15.32;;;3.55;;
75704;SDS011;70013;44.726;37.760;2023-08-24T02:48:34;12.55;;;3.38;;
75704;SDS011;70013;44.726;37.760;2023-08-24T02:49:36;8.52;;;3.10;;
75704;SDS011;70013;44.726;37.760;2023-08-24T02:50:38;12.90;;;3.20;;
75704;SDS011;70013;44.726;37.760;2023-08-24T02:51:40;10.07;;;3.20;;
75704;SDS011;70013;44.726;37.760;2023-08-24T02:52:42;11.93;;;3.17;;
75704;SDS011;70013;44.726;37.760;2023-08-24T02:54:45;9.85;;;3.30;;
75704;SDS011;70013;44.726;37.760;2023-08-24T02:55:46;10.73;;;3.40;;
75704;SDS011;70013;44.726;37.760;2023-08-24T02:57:49;10.90;;;3.33;;
75704;SDS011;70013;44.726;37.760;2023-08-24T02:58:51;18.95;;;3.40;;
75704;SDS011;70013;44.726;37.760;2023-08-24T02:59:54;15.70;;;3.83;;
75704;SDS011;70013;44.726;37.760;2023-08-24T03:00:57;15.13;;;3.53;;
75704;SDS011;70013;44.726;37.760;2023-08-24T03:01:59;13.25;;;3.63;;
75704;SDS011;70013;44.726;37.760;2023-08-24T03:03:00;19.30;;;4.38;;
75704;SDS011;70013;44.726;37.760;2023-08-24T03:04:01;17.90;;;4.20;;
75704;SDS011;70013;44.726;37.760;2023-08-24T03:05:05;18.50;;;3.65;;
75704;SDS011;70013;44.726;37.760;2023-08-24T03:06:07;20.38;;;3.65;;
75704;SDS011;70013;44.726;37.760;2023-08-24T03:07:09;18.38;;;4.22;;
75704;SDS011;70013;44.726;37.760;2023-08-24T03:08:11;15.57;;;3.80;;
75704;SDS011;70013;44.726;37.760;2023-08-24T03:09:12;14.60;;;3.30;;
75704;SDS011;70013;44.726;37.760;2023-08-24T03:10:14;17.45;;;4.20;;
75704;SDS011;70013;44.726;37.760;2023-08-24T03:11:16;14.88;;;3.83;;
75704;SDS011;70013;44.726;37.760;2023-08-24T03:12:17;19.40;;;4.15;;
75704;SDS011;70013;44.726;37.760;2023-08-24T03:13:19;16.98;;;4.00;;
75704;SDS011;70013;44.726;37.760;2023-08-24T03:14:21;13.38;;;3.72;;
75704;SDS011;70013;44.726;37.760;2023-08-24T03:15:23;19.30;;;3.97;;
75704;SDS011;70013;44.726;37.760;2023-08-24T03:16:25;27.88;;;4.38;;
75704;SDS011;70013;44.726;37.760;2023-08-24T03:17:27;12.88;;;3.90;;
75704;SDS011;70013;44.726;37.760;2023-08-24T03:18:29;17.92;;;4.28;;
75704;SDS011;70013;44.726;37.760;2023-08-24T03:20:31;16.08;;;3.80;;
75704;SDS011;70013;44.726;37.760;2023-08-24T03:21:33;12.25;;;3.83;;
75704;SDS011;70013;44.726;37.760;2023-08-24T03:22:34;19.75;;;4.38;;
75704;SDS011;70013;44.726;37.760;2023-08-24T03:23:36;16.65;;;3.58;;
75704;SDS011;70013;44.726;37.760;2023-08-24T03:24:37;14.70;;;3.63;;
75704;SDS011;70013;44.726;37.760;2023-08-24T03:25:40;15.25;;;4.72;;
75704;SDS011;70013;44.726;37.760;2023-08-24T03:26:42;16.48;;;4.15;;
75704;SDS011;70013;44.726;37.760;2023-08-24T03:27:43;19.35;;;3.78;;
75704;SDS011;70013;44.726;37.760;2023-08-24T03:29:46;13.35;;;3.78;;
75704;SDS011;70013;44.726;37.760;2023-08-24T03:30:48;14.73;;;3.83;;
75704;SDS011;70013;44.726;37.760;2023-08-24T03:31:52;17.63;;;4.05;;
75704;SDS011;70013;44.726;37.760;2023-08-24T03:32:54;22.55;;;3.83;;
75704;SDS011;70013;44.726;37.760;2023-08-24T03:33:55;15.50;;;3.72;;
75704;SDS011;70013;44.726;37.760;2023-08-24T03:35:00;14.27;;;3.95;;
75704;SDS011;70013;44.726;37.760;2023-08-24T03:36:06;21.55;;;4.13;;
75704;SDS011;70013;44.726;37.760;2023-08-24T03:37:08;13.90;;;3.80;;
75704;SDS011;70013;44.726;37.760;2023-08-24T03:39:10;25.63;;;4.53;;
75704;SDS011;70013;44.726;37.760;2023-08-24T03:40:12;16.08;;;4.05;;
75704;SDS011;70013;44.726;37.760;2023-08-24T03:41:14;19.63;;;3.67;;
75704;SDS011;70013;44.726;37.760;2023-08-24T03:42:16;17.48;;;3.80;;
75704;SDS011;70013;44.726;37.760;2023-08-24T03:43:18;16.20;;;3.67;;
75704;SDS011;70013;44.726;37.760;2023-08-24T03:45:20;18.42;;;3.50;;
75704;SDS011;70013;44.726;37.760;2023-08-24T03:46:22;15.15;;;3.70;;
75704;SDS011;70013;44.726;37.760;2023-08-24T03:48:25;20.13;;;4.70;;
75704;SDS011;70013;44.726;37.760;2023-08-24T03:49:26;21.88;;;4.22;;
75704;SDS011;70013;44.726;37.760;2023-08-24T03:50:29;12.85;;;3.20;;
75704;SDS011;70013;44.726;37.760;2023-08-24T03:51:30;12.73;;;3.40;;
75704;SDS011;70013;44.726;37.760;2023-08-24T03:52:32;11.18;;;3.45;;
75704;SDS011;70013;44.726;37.760;2023-08-24T03:53:34;17.98;;;3.47;;
75704;SDS011;70013;44.726;37.760;2023-08-24T03:55:36;13.38;;;3.15;;
75704;SDS011;70013;44.726;37.760;2023-08-24T03:56:39;16.90;;;3.67;;
75704;SDS011;70013;44.726;37.760;2023-08-24T03:57:40;14.68;;;3.47;;
75704;SDS011;70013;44.726;37.760;2023-08-24T03:58:42;12.82;;;3.42;;
